Hauptseite
METAR-TAF:

METAR-TAF

Flughäfen :

Flughafen Edinburgh

Edinburgh, Schottland

Breite: 55-57N, Länge: 003-21W, Höhe: 41 m

Beobachtung

Neuester Wetterbericht von vor 16 Minuten, um 02:20 UTC
Windstille
Temperatur -1°C
Luftfeuchtigkeit 93%
Luftdruck 1034 hPa
Sichtweite 10 km oder mehr
keine Wolken unter 1500 m und keine Kumulonimbus oder Gewitterwolken

METAR: EGPH 150220Z 00000KT CAVOK M01/M02 Q1034

Zeit: 03:36 (02:36 UTC)

Prognose

Neuester Wetterbericht von vor 3 Stunden und 44 Minuten, um 22:52 UTC
Gültige Prognose vom 15 um 00 UTC bis 15 um 24 UTC
Wind 7 kt aus Nordost
Sichtweite 10 km oder mehr
Leicht bewölkt in der Höhe von 4000 ft
Wahrscheinlichkeit 30% :
Zeitweise
vom 15 um 00 UTC bis 15 um 07 UTC
Sichtweite: 8000 m

TAF: EGPH 142252Z 1500/1524 05007KT 9999 FEW040 PROB30 TEMPO 1500/1507 8000

Wetterbeobachtungen und Prognosen von mehr als 4000 Flughäfen (METAR und TAF Bericht).

Die verfügbaren Stationen werden durch gelbe und rote Markierungen auf der Karte dargestellt.

Führen Sie die Maus auf sie, um den Namen der Station zu sehen.

Darauf klicken, um die Beobachtung von Wetterbeobachtungen und Prognosen zu sehen.

Um die Karte zu ändern : klicken Sie auf den grünen Tasten mit einem schwarzen Kreuz Zum Vergrößern, auf den grünen Button mit einem Gedankenstrich zu verkleinern, oder auf die grünen Pfeile für benachbarte Karten.


METAR-TAF: